createdAt,value
2023-03-05T00:01:34.094Z,47.08
2023-03-05T00:04:03.351Z,45.00
2023-03-05T00:06:31.881Z,46.53
2023-03-05T00:08:59.543Z,48.25
2023-03-05T00:11:30.234Z,43.17
2023-03-05T00:13:58.631Z,45.15
2023-03-05T00:16:27.395Z,50.28
2023-03-05T00:18:57.098Z,43.75
2023-03-05T00:21:43.034Z,42.85
2023-03-05T00:24:18.523Z,46.45
2023-03-05T00:26:46.389Z,45.72
2023-03-05T00:29:19.646Z,43.33
2023-03-05T00:31:46.793Z,40.35
2023-03-05T00:34:17.527Z,42.85
2023-03-05T00:36:49.469Z,45.38
2023-03-05T00:39:19.167Z,46.58
2023-03-05T00:41:46.337Z,47.60
2023-03-05T00:44:13.616Z,47.10
2023-03-05T00:46:41.318Z,50.22
2023-03-05T00:49:08.784Z,43.15
2023-03-05T00:51:35.908Z,42.55
2023-03-05T00:54:04.621Z,46.45
2023-03-05T00:56:32.278Z,43.08
2023-03-05T00:58:59.469Z,42.33
2023-03-05T01:01:28.563Z,45.95
2023-03-05T01:04:00.146Z,46.15
2023-03-05T01:06:27.993Z,43.28
2023-03-05T01:08:56.578Z,41.70
2023-03-05T01:11:24.117Z,37.05
2023-03-05T01:13:51.281Z,41.55
2023-03-05T01:16:19.719Z,44.97
2023-03-05T01:18:46.777Z,42.60
2023-03-05T01:21:13.962Z,40.40
2023-03-05T01:23:41.096Z,48.78
2023-03-05T01:26:08.677Z,47.55
2023-03-05T01:28:36.786Z,47.97
2023-03-05T01:31:08.774Z,39.92
2023-03-05T01:33:35.895Z,43.17
2023-03-05T01:36:08.853Z,39.03
2023-03-05T01:38:36.586Z,42.88
2023-03-05T01:41:04.041Z,48.17
2023-03-05T01:43:31.689Z,45.63
2023-03-05T01:46:16.967Z,41.05
2023-03-05T01:48:53.914Z,41.28
2023-03-05T01:51:26.280Z,41.00
2023-03-05T01:53:55.367Z,42.13
2023-03-05T01:56:22.484Z,41.15
2023-03-05T01:58:51.380Z,39.22
2023-03-05T02:01:19.442Z,34.35
2023-03-05T02:03:48.619Z,36.00
2023-03-05T02:06:16.902Z,42.72
2023-03-05T02:08:44.032Z,36.47
2023-03-05T02:11:11.260Z,49.55
2023-03-05T02:13:40.771Z,39.97
2023-03-05T02:16:08.231Z,41.95
2023-03-05T02:18:35.359Z,44.53
2023-03-05T02:21:08.474Z,44.55
2023-03-05T02:23:38.108Z,43.45
2023-03-05T02:26:09.507Z,42.25
2023-03-05T02:28:57.973Z,39.67
2023-03-05T02:31:27.270Z,35.53
2023-03-05T02:33:56.359Z,40.20
2023-03-05T02:36:26.696Z,47.55
2023-03-05T02:38:57.093Z,40.85
2023-03-05T02:41:24.755Z,44.78
2023-03-05T02:43:52.764Z,47.45
2023-03-05T02:46:20.043Z,49.90
2023-03-05T02:48:49.553Z,43.83
2023-03-05T02:51:17.332Z,43.33
2023-03-05T02:53:45.618Z,43.83
2023-03-05T02:56:13.072Z,41.97
2023-03-05T02:58:40.271Z,32.85
2023-03-05T03:01:09.989Z,26.77
2023-03-05T03:03:37.618Z,27.60
2023-03-05T03:06:05.482Z,24.98
2023-03-05T03:08:32.950Z,27.65
2023-03-05T03:11:10.071Z,24.63
2023-03-05T03:13:37.194Z,23.23
2023-03-05T03:16:12.005Z,23.77
2023-03-05T03:18:39.388Z,25.90
2023-03-05T03:21:07.052Z,23.85
2023-03-05T03:23:34.596Z,23.83
2023-03-05T03:26:01.712Z,27.50
2023-03-05T03:28:28.795Z,26.13
2023-03-05T03:30:55.885Z,22.65
2023-03-05T03:33:23.040Z,21.92
2023-03-05T03:35:50.309Z,26.35
2023-03-05T03:38:17.519Z,23.27
2023-03-05T03:40:44.579Z,25.27
2023-03-05T03:43:11.659Z,24.05
2023-03-05T03:45:43.865Z,21.92
2023-03-05T03:48:11.844Z,23.13
2023-03-05T03:50:41.198Z,23.83
2023-03-05T03:53:09.651Z,23.40
2023-03-05T03:55:36.841Z,26.67
2023-03-05T03:58:04.271Z,24.38
2023-03-05T04:00:31.754Z,23.95
2023-03-05T04:02:59.876Z,32.22
2023-03-05T04:05:27.024Z,27.10
2023-03-05T04:07:54.944Z,25.67
2023-03-05T04:10:22.200Z,29.27
2023-03-05T04:12:50.618Z,29.25
2023-03-05T04:15:17.756Z,33.85
2023-03-05T04:17:44.742Z,28.38
2023-03-05T04:20:12.617Z,29.05
2023-03-05T04:22:39.657Z,27.58
2023-03-05T04:25:08.545Z,27.45
2023-03-05T04:27:37.619Z,28.30
2023-03-05T04:30:05.721Z,32.45
2023-03-05T04:32:32.875Z,27.35
2023-03-05T04:34:59.947Z,27.48
2023-03-05T04:37:27.412Z,25.88
2023-03-05T04:39:54.473Z,24.58
2023-03-05T04:42:21.596Z,34.67
2023-03-05T04:44:50.119Z,25.02
2023-03-05T04:47:18.643Z,23.05
2023-03-05T04:49:45.972Z,25.58
2023-03-05T04:52:14.772Z,26.42
2023-03-05T04:54:41.898Z,24.70
2023-03-05T04:57:09.413Z,22.67
2023-03-05T04:59:38.140Z,29.65
2023-03-05T05:02:05.664Z,22.77
2023-03-05T05:04:33.060Z,25.75
2023-03-05T05:07:00.192Z,27.42
2023-03-05T05:09:27.418Z,28.20
2023-03-05T05:11:55.038Z,26.23
2023-03-05T05:14:22.692Z,30.75
2023-03-05T05:16:49.713Z,30.20
2023-03-05T05:19:17.492Z,26.73
2023-03-05T05:21:44.548Z,21.25
2023-03-05T05:24:11.766Z,25.17
2023-03-05T05:26:38.856Z,23.95
2023-03-05T05:29:06.135Z,29.08
2023-03-05T05:31:33.329Z,29.10
2023-03-05T05:34:00.521Z,26.10
2023-03-05T05:36:27.903Z,27.77
2023-03-05T05:38:55.092Z,23.58
2023-03-05T05:41:22.620Z,24.60
2023-03-05T05:43:50.064Z,25.45
2023-03-05T05:46:20.382Z,27.70
2023-03-05T05:48:48.579Z,31.70
2023-03-05T05:51:22.430Z,24.08
2023-03-05T05:53:50.400Z,30.13
2023-03-05T05:56:18.740Z,32.97
2023-03-05T05:58:48.300Z,32.35
2023-03-05T06:01:28.265Z,31.90
2023-03-05T06:03:57.204Z,27.58
2023-03-05T06:06:26.856Z,27.67
2023-03-05T06:08:54.640Z,29.05
2023-03-05T06:11:22.583Z,29.48
2023-03-05T06:13:50.311Z,28.50
2023-03-05T06:16:21.572Z,27.45
2023-03-05T06:18:48.695Z,33.45
2023-03-05T06:21:18.551Z,34.22
2023-03-05T06:23:46.932Z,36.75
2023-03-05T06:26:19.008Z,35.80
2023-03-05T06:28:46.787Z,31.05
2023-03-05T06:31:17.675Z,33.90
2023-03-05T06:33:45.784Z,31.30
2023-03-05T06:36:16.456Z,33.50
2023-03-05T06:38:44.098Z,30.92
2023-03-05T06:41:15.261Z,29.27
2023-03-05T06:43:45.103Z,30.00
2023-03-05T06:46:22.930Z,31.73
2023-03-05T06:48:50.956Z,28.88
2023-03-05T06:51:20.870Z,34.33
2023-03-05T06:53:49.670Z,36.03
2023-03-05T06:56:18.379Z,38.70
2023-03-05T06:58:48.257Z,36.10
2023-03-05T07:01:15.977Z,26.13
2023-03-05T07:03:44.069Z,20.73
2023-03-05T07:06:16.180Z,19.65
2023-03-05T07:08:46.928Z,20.13
2023-03-05T07:11:18.099Z,21.35
2023-03-05T07:13:47.914Z,20.77
2023-03-05T07:16:19.119Z,29.67
2023-03-05T07:18:46.668Z,36.85
2023-03-05T07:21:26.669Z,39.08
2023-03-05T07:23:55.928Z,48.03
2023-03-05T07:26:24.006Z,43.90
2023-03-05T07:28:51.566Z,41.33
2023-03-05T07:31:23.978Z,51.85
2023-03-05T07:33:51.320Z,48.95
2023-03-05T07:36:18.965Z,52.97
2023-03-05T07:38:46.508Z,59.78
2023-03-05T07:41:20.322Z,52.05
2023-03-05T07:43:49.782Z,55.25
2023-03-05T07:46:19.812Z,64.20
2023-03-05T07:48:46.934Z,61.67
2023-03-05T07:51:17.920Z,66.07
2023-03-05T07:53:49.636Z,70.13
2023-03-05T07:56:32.072Z,72.70
2023-03-05T07:59:05.073Z,64.30
2023-03-05T08:01:33.721Z,70.72
2023-03-05T08:04:02.728Z,75.15
2023-03-05T08:06:30.113Z,79.25
2023-03-05T08:08:58.942Z,79.57
2023-03-05T08:11:26.863Z,80.60
2023-03-05T08:13:53.960Z,85.65
2023-03-05T08:16:22.232Z,78.97
2023-03-05T08:18:49.789Z,88.75
2023-03-05T08:21:27.032Z,94.93
2023-03-05T08:23:54.232Z,97.57
2023-03-05T08:26:25.114Z,97.68
2023-03-05T08:28:52.675Z,89.28
2023-03-05T08:31:23.261Z,94.65
2023-03-05T08:33:54.536Z,99.97
2023-03-05T08:36:22.234Z,96.55
2023-03-05T08:38:50.959Z,99.35
2023-03-05T08:41:19.488Z,97.40
2023-03-05T08:43:46.760Z,91.53
2023-03-05T08:46:16.421Z,104.05
2023-03-05T08:48:44.157Z,98.05
2023-03-05T08:51:18.357Z,97.10
2023-03-05T08:56:21.834Z,102.10
2023-03-05T08:58:49.415Z,91.25
2023-03-05T09:01:16.659Z,86.50
2023-03-05T09:03:45.159Z,82.63
2023-03-05T09:06:13.248Z,84.03
2023-03-05T09:08:40.917Z,81.93
2023-03-05T09:11:11.515Z,81.68
2023-03-05T09:13:38.973Z,81.70
2023-03-05T09:16:12.075Z,78.35
2023-03-05T09:18:40.752Z,76.03
2023-03-05T09:21:14.218Z,76.25
2023-03-05T09:23:42.110Z,78.28
2023-03-05T09:26:12.260Z,84.53
2023-03-05T09:28:40.646Z,75.82
2023-03-05T09:31:09.817Z,73.97
2023-03-05T09:33:39.815Z,79.00
2023-03-05T09:36:21.394Z,82.32
2023-03-05T09:38:49.101Z,77.65
2023-03-05T09:42:03.960Z,83.38
2023-03-05T09:45:11.425Z,76.82
2023-03-05T09:48:06.908Z,68.13
2023-03-05T09:50:59.104Z,69.65
2023-03-05T09:53:51.133Z,69.82
2023-03-05T09:56:28.322Z,63.97
2023-03-05T09:59:04.788Z,57.72
2023-03-05T10:01:42.509Z,62.90
2023-03-05T10:04:23.894Z,62.13
2023-03-05T10:07:05.547Z,58.72
2023-03-05T10:09:44.914Z,58.78
2023-03-05T10:12:34.656Z,61.08
2023-03-05T10:15:03.326Z,55.05
2023-03-05T10:17:55.264Z,50.58
2023-03-05T10:20:22.694Z,55.92
2023-03-05T10:23:29.413Z,50.92
2023-03-05T10:26:11.953Z,51.28
2023-03-05T10:29:05.105Z,57.35
2023-03-05T10:31:38.341Z,57.10
2023-03-05T10:34:25.617Z,56.30
2023-03-05T10:37:21.398Z,45.83
2023-03-05T10:40:16.952Z,45.72
2023-03-05T10:42:56.855Z,47.20
2023-03-05T10:45:36.252Z,55.28
2023-03-05T10:48:31.890Z,48.33
2023-03-05T10:51:15.899Z,49.45
2023-03-05T10:54:15.763Z,48.70
2023-03-05T10:56:42.822Z,51.05
2023-03-05T10:59:09.960Z,52.22
2023-03-05T11:01:37.636Z,50.80
2023-03-05T11:04:10.831Z,53.33
2023-03-05T11:06:45.913Z,52.38
2023-03-05T11:10:00.729Z,47.08
2023-03-05T11:12:31.793Z,47.95
2023-03-05T11:15:14.003Z,47.25
2023-03-05T11:17:48.032Z,48.45
2023-03-05T11:20:27.457Z,49.67
2023-03-05T11:23:18.112Z,49.33
2023-03-05T11:25:57.182Z,49.90
2023-03-05T11:28:53.098Z,48.35
2023-03-05T11:31:28.300Z,45.47
2023-03-05T11:34:07.072Z,47.38
2023-03-05T11:36:38.875Z,50.58
2023-03-05T11:39:05.937Z,45.58
2023-03-05T11:41:41.773Z,43.03
2023-03-05T11:44:49.488Z,47.67
2023-03-05T11:47:32.293Z,43.72
2023-03-05T11:50:18.521Z,43.10
2023-03-05T11:52:57.613Z,48.45
2023-03-05T11:55:50.316Z,46.22
2023-03-05T11:58:26.085Z,48.47
2023-03-05T12:00:53.915Z,47.60
2023-03-05T12:03:29.741Z,42.28
2023-03-05T12:06:16.554Z,49.97
2023-03-05T12:08:50.355Z,47.88
2023-03-05T12:11:27.430Z,50.60
2023-03-05T12:14:33.392Z,48.35
2023-03-05T12:17:42.270Z,48.10
2023-03-05T12:20:55.241Z,53.97
2023-03-05T12:23:23.108Z,50.20
2023-03-05T12:25:57.020Z,48.00
2023-03-05T12:28:37.708Z,57.08
2023-03-05T12:31:34.927Z,51.70
2023-03-05T12:34:40.495Z,50.20
2023-03-05T12:37:33.310Z,46.75
2023-03-05T12:40:11.661Z,52.03
2023-03-05T12:42:39.214Z,47.75
2023-03-05T12:45:09.620Z,47.88
2023-03-05T12:47:40.884Z,51.10
2023-03-05T12:50:29.696Z,52.42
2023-03-05T12:53:20.643Z,51.80
2023-03-05T12:56:19.698Z,47.92
2023-03-05T12:58:56.632Z,52.22
2023-03-05T13:01:39.933Z,47.17
2023-03-05T13:04:16.273Z,47.63
2023-03-05T13:06:43.634Z,47.92
2023-03-05T13:09:31.612Z,47.60
2023-03-05T13:11:58.822Z,48.22
2023-03-05T13:14:51.210Z,50.87
2023-03-05T13:17:29.305Z,47.40
2023-03-05T13:19:59.731Z,48.45
2023-03-05T13:22:28.261Z,46.75
2023-03-05T13:25:16.758Z,43.00
2023-03-05T13:27:44.024Z,48.63
2023-03-05T13:30:28.584Z,45.10
2023-03-05T13:33:05.708Z,48.72
2023-03-05T13:35:33.979Z,48.35
2023-03-05T13:38:02.202Z,44.05
2023-03-05T13:40:33.547Z,50.63
2023-03-05T13:43:12.695Z,44.60
2023-03-05T13:45:40.433Z,47.55
2023-03-05T13:48:07.847Z,49.08
2023-03-05T13:50:40.070Z,45.55
2023-03-05T13:53:32.677Z,45.15
2023-03-05T13:56:07.457Z,50.90
2023-03-05T13:58:56.664Z,44.35
2023-03-05T14:01:42.285Z,46.50
2023-03-05T14:04:15.695Z,46.65
2023-03-05T14:07:00.635Z,48.87
2023-03-05T14:09:46.366Z,51.40
2023-03-05T14:12:36.062Z,42.65
2023-03-05T14:15:19.196Z,45.50
2023-03-05T14:17:46.513Z,43.70
2023-03-05T14:20:13.506Z,41.40
2023-03-05T14:22:45.808Z,41.40
2023-03-05T14:25:36.501Z,42.92
2023-03-05T14:28:08.269Z,38.63
2023-03-05T14:30:36.361Z,44.08
2023-03-05T14:33:04.431Z,40.92
2023-03-05T14:35:31.935Z,39.72
2023-03-05T14:38:00.066Z,43.78
2023-03-05T14:40:36.547Z,40.72
2023-03-05T14:43:06.154Z,43.28
2023-03-05T14:45:38.106Z,42.97
2023-03-05T14:48:08.345Z,39.83
2023-03-05T14:50:42.601Z,43.28
2023-03-05T14:53:35.029Z,44.10
2023-03-05T14:56:02.374Z,44.13
2023-03-05T14:58:32.520Z,40.28
2023-03-05T15:00:59.798Z,43.70
2023-03-05T15:03:28.209Z,45.40
2023-03-05T15:05:58.819Z,40.63
2023-03-05T15:08:30.562Z,47.63
2023-03-05T15:10:58.797Z,44.90
2023-03-05T15:13:27.028Z,41.65
2023-03-05T15:15:55.206Z,40.00
2023-03-05T15:18:23.802Z,42.42
2023-03-05T15:20:54.949Z,45.10
2023-03-05T15:23:22.330Z,44.35
2023-03-05T15:25:50.270Z,38.97
2023-03-05T15:28:17.889Z,40.35
2023-03-05T15:30:47.912Z,40.97
2023-03-05T15:33:17.281Z,42.35
2023-03-05T15:35:45.090Z,43.88
2023-03-05T15:38:12.340Z,41.20
2023-03-05T15:40:39.596Z,41.78
2023-03-05T15:43:06.849Z,41.13
2023-03-05T15:45:34.245Z,43.38
2023-03-05T15:48:01.917Z,43.38
2023-03-05T15:50:29.384Z,36.88
2023-03-05T15:52:57.366Z,37.13
2023-03-05T15:55:24.784Z,41.65
2023-03-05T15:57:53.615Z,39.10
2023-03-05T16:00:26.930Z,41.97
2023-03-05T16:02:54.224Z,42.20
2023-03-05T16:05:21.456Z,36.53
2023-03-05T16:07:51.848Z,40.03
2023-03-05T16:10:25.391Z,37.72
2023-03-05T16:13:08.275Z,37.50
2023-03-05T16:15:40.299Z,37.72
2023-03-05T16:18:15.983Z,40.47
2023-03-05T16:20:43.090Z,38.03
2023-03-05T16:23:10.232Z,41.45
2023-03-05T16:25:38.020Z,42.58
2023-03-05T16:28:05.733Z,37.10
2023-03-05T16:30:33.224Z,46.67
2023-03-05T16:33:00.859Z,40.13
2023-03-05T16:35:28.192Z,43.47
2023-03-05T16:37:55.534Z,40.40
2023-03-05T16:40:22.921Z,38.20
2023-03-05T16:42:49.982Z,46.08
2023-03-05T16:45:17.125Z,44.50
2023-03-05T16:47:44.224Z,39.03
2023-03-05T16:50:12.539Z,41.22
2023-03-05T16:52:40.144Z,38.55
2023-03-05T16:55:07.714Z,37.85
2023-03-05T16:57:35.424Z,38.25
2023-03-05T17:00:04.203Z,38.70
2023-03-05T17:02:32.091Z,42.28
2023-03-05T17:05:00.021Z,46.03
2023-03-05T17:07:27.878Z,43.28
2023-03-05T17:09:54.916Z,35.58
2023-03-05T17:12:22.919Z,39.08
2023-03-05T17:14:50.074Z,39.08
2023-03-05T17:17:17.622Z,39.97
2023-03-05T17:19:44.684Z,42.95
2023-03-05T17:22:12.973Z,49.72
2023-03-05T17:24:42.927Z,47.88
2023-03-05T17:27:10.455Z,72.15
2023-03-05T17:29:37.464Z,46.35
2023-03-05T17:32:04.978Z,38.17
2023-03-05T17:34:36.597Z,43.55
2023-03-05T17:37:05.329Z,49.42
2023-03-05T17:39:32.895Z,40.58
2023-03-05T17:42:01.154Z,62.35
2023-03-05T17:44:28.272Z,45.28
2023-03-05T17:46:55.438Z,46.30
2023-03-05T17:49:22.667Z,42.00
2023-03-05T17:51:49.832Z,41.78
2023-03-05T17:54:16.964Z,48.85
2023-03-05T17:56:44.042Z,44.30
2023-03-05T17:59:11.437Z,41.08
2023-03-05T18:01:38.848Z,40.05
2023-03-05T18:04:05.960Z,45.55
2023-03-05T18:06:33.202Z,45.38
2023-03-05T18:09:00.500Z,44.38
2023-03-05T18:11:29.024Z,47.22
2023-03-05T18:13:56.490Z,48.08
2023-03-05T18:16:25.209Z,48.88
2023-03-05T18:18:52.770Z,68.40
2023-03-05T18:21:22.713Z,53.90
2023-03-05T18:23:51.344Z,48.88
2023-03-05T18:26:18.774Z,56.15
2023-03-05T18:28:48.690Z,48.60
2023-03-05T18:31:15.755Z,47.53
2023-03-05T18:33:43.257Z,54.17
2023-03-05T18:36:12.001Z,53.30
2023-03-05T18:38:39.222Z,57.40
2023-03-05T18:41:06.660Z,53.47
2023-03-05T18:43:34.488Z,59.38
2023-03-05T18:46:05.082Z,52.85
2023-03-05T18:48:32.369Z,55.55
2023-03-05T18:51:01.244Z,57.70
2023-03-05T18:53:29.010Z,55.78
2023-03-05T18:55:56.010Z,59.65
2023-03-05T18:58:24.488Z,57.13
2023-03-05T19:00:53.086Z,56.13
2023-03-05T19:03:22.567Z,55.55
2023-03-05T19:05:51.246Z,62.47
2023-03-05T19:08:19.147Z,60.30
2023-03-05T19:10:46.644Z,66.30
2023-03-05T19:13:43.782Z,62.75
2023-03-05T19:16:18.009Z,56.47
2023-03-05T19:21:58.645Z,50.67
2023-03-05T19:24:31.345Z,46.15
2023-03-05T19:27:01.200Z,53.45
2023-03-05T19:29:34.356Z,52.58
2023-03-05T19:32:01.791Z,49.22
2023-03-05T19:34:28.915Z,53.85
2023-03-05T19:36:55.974Z,51.13
2023-03-05T19:39:23.241Z,51.50
2023-03-05T19:41:50.338Z,56.85
2023-03-05T19:44:18.678Z,64.30
2023-03-05T19:46:48.503Z,56.22
2023-03-05T19:49:17.358Z,58.38
2023-03-05T19:51:45.629Z,59.60
2023-03-05T19:54:15.590Z,54.17
2023-03-05T19:56:47.044Z,54.55
2023-03-05T19:59:18.930Z,62.10
2023-03-05T20:01:46.426Z,67.30
2023-03-05T20:04:21.546Z,67.40
2023-03-05T20:06:48.745Z,67.63
2023-03-05T20:09:17.185Z,57.13
2023-03-05T20:11:45.169Z,62.67
2023-03-05T20:14:14.637Z,64.70
2023-03-05T20:16:43.548Z,63.08
2023-03-05T20:19:17.982Z,66.57
2023-03-05T20:21:46.221Z,75.85
2023-03-05T20:24:16.514Z,67.40
2023-03-05T20:26:46.288Z,67.75
2023-03-05T20:29:17.585Z,69.22
2023-03-05T20:31:46.454Z,61.05
2023-03-05T20:34:16.941Z,63.28
2023-03-05T20:36:44.638Z,62.45
2023-03-05T20:39:12.193Z,56.25
2023-03-05T20:41:40.619Z,62.15
2023-03-05T20:44:08.773Z,60.97
2023-03-05T20:47:06.960Z,58.83
2023-03-05T20:49:37.289Z,58.22
2023-03-05T20:52:04.700Z,56.50
2023-03-05T20:54:31.934Z,60.03
2023-03-05T20:56:59.234Z,58.92
2023-03-05T20:59:27.533Z,60.63
2023-03-05T21:01:54.884Z,59.65
2023-03-05T21:04:22.180Z,59.58
2023-03-05T21:06:54.275Z,56.50
2023-03-05T21:09:21.643Z,62.30
2023-03-05T21:11:48.732Z,60.28
2023-03-05T21:14:15.913Z,50.88
2023-03-05T21:16:43.073Z,55.03
2023-03-05T21:19:10.283Z,57.40
2023-03-05T21:21:39.064Z,47.50
2023-03-05T21:24:06.786Z,53.65
2023-03-05T21:26:33.972Z,49.95
2023-03-05T21:29:01.161Z,55.70
2023-03-05T21:31:29.242Z,50.17
2023-03-05T21:33:56.423Z,43.92
2023-03-05T21:36:23.482Z,45.40
2023-03-05T21:38:50.550Z,41.97
2023-03-05T21:41:20.603Z,47.25
2023-03-05T21:43:48.998Z,36.08
2023-03-05T21:46:16.409Z,36.67
2023-03-05T21:48:43.454Z,35.22
2023-03-05T21:52:09.616Z,39.05
2023-03-05T21:54:42.002Z,38.30
2023-03-05T21:57:12.354Z,37.53
2023-03-05T21:59:42.616Z,35.90
2023-03-05T22:02:16.561Z,39.60
2023-03-05T22:04:44.587Z,38.65
2023-03-05T22:07:12.649Z,41.78
2023-03-05T22:09:40.198Z,42.53
2023-03-05T22:13:10.484Z,41.22
2023-03-05T22:15:48.507Z,35.05
2023-03-05T22:18:20.126Z,32.30
2023-03-05T22:20:48.329Z,39.08
2023-03-05T22:23:17.425Z,39.00
2023-03-05T22:25:44.630Z,45.47
2023-03-05T22:28:13.209Z,45.10
2023-03-05T22:30:46.603Z,39.45
2023-03-05T22:33:13.771Z,37.07
2023-03-05T22:35:41.907Z,41.88
2023-03-05T22:38:11.242Z,46.30
2023-03-05T22:40:45.986Z,42.58
2023-03-05T22:43:14.367Z,45.55
2023-03-05T22:45:41.976Z,42.42
2023-03-05T22:48:10.487Z,36.80
2023-03-05T22:50:39.601Z,44.63
2023-03-05T22:53:07.441Z,42.60
2023-03-05T22:55:40.717Z,43.03
2023-03-05T22:58:08.339Z,41.60
2023-03-05T23:00:35.832Z,43.38
2023-03-05T23:03:03.236Z,41.17
2023-03-05T23:05:30.348Z,45.75
2023-03-05T23:07:58.729Z,42.85
2023-03-05T23:10:28.855Z,40.10
2023-03-05T23:12:59.655Z,40.60
2023-03-05T23:15:34.556Z,43.72
2023-03-05T23:18:03.270Z,47.60
2023-03-05T23:20:33.763Z,41.33
2023-03-05T23:23:01.693Z,49.58
2023-03-05T23:25:31.715Z,46.05
2023-03-05T23:28:00.175Z,48.65
2023-03-05T23:30:37.328Z,54.60
2023-03-05T23:33:27.478Z,45.13
2023-03-05T23:36:00.118Z,44.88
2023-03-05T23:38:29.422Z,48.58
2023-03-05T23:41:01.195Z,44.22
2023-03-05T23:43:30.148Z,43.55
2023-03-05T23:45:57.476Z,49.10
2023-03-05T23:48:26.519Z,47.03
2023-03-05T23:50:56.155Z,51.72
2023-03-05T23:53:31.351Z,54.95
2023-03-05T23:55:58.774Z,44.85
2023-03-05T23:58:26.526Z,43.22
